createdAt,value
2022-08-10T00:00:32.073Z,11.10
2022-08-10T00:01:32.134Z,8.60
2022-08-10T00:03:26.272Z,9.20
2022-08-10T00:04:26.258Z,8.90
2022-08-10T00:06:21.543Z,8.90
2022-08-10T00:07:21.538Z,9.40
2022-08-10T00:09:15.635Z,10.40
2022-08-10T00:10:15.621Z,8.20
2022-08-10T00:12:09.390Z,8.90
2022-08-10T00:13:09.383Z,8.60
2022-08-10T00:15:03.517Z,8.30
2022-08-10T00:16:03.499Z,8.90
2022-08-10T00:17:57.717Z,9.50
2022-08-10T00:18:57.703Z,8.40
2022-08-10T00:20:51.875Z,10.10
2022-08-10T00:21:51.861Z,10.10
2022-08-10T00:23:46.998Z,11.10
2022-08-10T00:24:46.987Z,9.80
2022-08-10T00:27:58.981Z,9.30
2022-08-10T00:28:01.786Z,8.60
2022-08-10T00:29:36.233Z,8.30
2022-08-10T00:30:36.217Z,9.00
2022-08-10T00:32:29.987Z,9.40
2022-08-10T00:33:29.969Z,8.60
2022-08-10T00:35:24.245Z,8.40
2022-08-10T00:36:24.239Z,10.30
2022-08-10T00:38:19.434Z,8.70
2022-08-10T00:39:19.477Z,8.20
2022-08-10T00:41:13.527Z,9.90
2022-08-10T00:42:13.520Z,8.10
2022-08-10T00:44:08.624Z,9.50
2022-08-10T00:45:08.616Z,9.90
2022-08-10T00:47:03.724Z,10.20
2022-08-10T00:48:03.711Z,8.50
2022-08-10T00:49:57.815Z,9.00
2022-08-10T00:50:57.803Z,8.40
2022-08-10T00:52:51.955Z,8.90
2022-08-10T00:53:51.942Z,9.50
2022-08-10T00:57:14.984Z,8.10
2022-08-10T00:57:16.651Z,8.40
2022-08-10T00:58:40.163Z,8.80
2022-08-10T00:59:58.590Z,10.30
2022-08-10T01:02:09.177Z,8.40
2022-08-10T01:02:34.793Z,8.30
2022-08-10T01:04:58.768Z,9.20
2022-08-10T01:05:28.504Z,9.60
2022-08-10T01:07:24.095Z,9.20
2022-08-10T01:08:24.078Z,9.20
2022-08-10T01:10:19.190Z,9.20
2022-08-10T01:12:38.352Z,9.50
2022-08-10T01:13:13.328Z,8.90
2022-08-10T01:14:13.302Z,8.50
2022-08-10T01:16:07.385Z,9.30
2022-08-10T01:17:07.379Z,9.90
2022-08-10T01:19:01.488Z,8.70
2022-08-10T01:20:01.894Z,9.00
2022-08-10T01:21:56.968Z,9.40
2022-08-10T01:22:55.555Z,8.80
2022-08-10T01:24:49.664Z,8.70
2022-08-10T01:26:11.532Z,8.70
2022-08-10T01:27:43.863Z,8.80
2022-08-10T01:28:43.845Z,9.10
2022-08-10T01:30:37.573Z,9.20
2022-08-10T01:31:37.561Z,10.10
2022-08-10T01:34:02.465Z,9.30
2022-08-10T01:34:32.711Z,9.60
2022-08-10T01:36:32.401Z,9.60
2022-08-10T01:37:26.803Z,8.50
2022-08-10T01:39:21.023Z,8.90
2022-08-10T01:40:20.942Z,8.80
2022-08-10T01:42:14.755Z,9.60
2022-08-10T01:43:14.739Z,9.90
2022-08-10T01:45:08.475Z,11.10
2022-08-10T01:46:08.468Z,9.40
2022-08-10T01:48:02.589Z,8.90
2022-08-10T01:49:02.573Z,9.50
2022-08-10T01:50:59.870Z,9.30
2022-08-10T01:51:56.699Z,9.00
2022-08-10T01:53:50.792Z,9.60
2022-08-10T01:54:50.780Z,9.50
2022-08-10T01:56:44.904Z,8.50
2022-08-10T01:57:44.895Z,8.30
2022-08-10T01:59:39.107Z,9.10
2022-08-10T02:00:39.103Z,8.80
2022-08-10T02:02:33.643Z,8.40
2022-08-10T02:03:33.365Z,8.60
2022-08-10T02:05:27.181Z,10.50
2022-08-10T02:06:27.174Z,8.20
2022-08-10T02:08:22.577Z,8.90
2022-08-10T02:09:22.559Z,8.80
2022-08-10T02:11:17.790Z,8.70
2022-08-10T02:12:17.783Z,8.20
2022-08-10T02:14:11.916Z,10.00
2022-08-10T02:15:11.895Z,9.10
2022-08-10T02:17:06.023Z,8.70
2022-08-10T02:18:06.017Z,8.60
2022-08-10T02:20:00.294Z,9.10
2022-08-10T02:21:00.278Z,9.70
2022-08-10T02:22:54.391Z,9.70
2022-08-10T02:23:59.694Z,9.40
2022-08-10T02:25:48.485Z,9.90
2022-08-10T02:26:48.481Z,9.60
2022-08-10T02:28:42.941Z,9.60
2022-08-10T02:29:42.926Z,8.40
2022-08-10T02:31:37.235Z,9.20
2022-08-10T02:32:38.079Z,10.20
2022-08-10T02:34:32.337Z,11.30
2022-08-10T02:35:53.899Z,11.10
2022-08-10T02:37:26.443Z,8.70
2022-08-10T02:38:58.654Z,9.30
2022-08-10T02:45:12.566Z,9.40
2022-08-10T02:45:14.851Z,8.50
2022-08-10T02:45:19.604Z,9.10
2022-08-10T02:45:20.367Z,8.80
2022-08-10T02:46:09.490Z,11.80
2022-08-10T02:47:09.481Z,8.90
2022-08-10T02:49:03.588Z,9.90
2022-08-10T02:50:03.580Z,12.00
2022-08-10T02:52:07.854Z,9.00
2022-08-10T02:52:58.638Z,8.80
2022-08-10T02:54:52.778Z,9.10
2022-08-10T02:55:52.763Z,14.70
2022-08-10T02:58:13.850Z,10.80
2022-08-10T02:58:46.840Z,8.70
2022-08-10T03:00:40.955Z,8.70
2022-08-10T03:01:40.997Z,9.90
2022-08-10T03:03:35.046Z,9.40
2022-08-10T03:04:55.647Z,9.80
2022-08-10T03:06:29.099Z,8.50
2022-08-10T03:07:42.926Z,9.50
2022-08-10T03:09:23.374Z,9.50
2022-08-10T03:10:23.358Z,9.00
2022-08-10T03:12:36.638Z,9.40
2022-08-10T03:13:17.435Z,8.60
2022-08-10T03:15:15.531Z,9.30
2022-08-10T03:16:11.547Z,12.80
2022-08-10T03:18:05.718Z,8.80
2022-08-10T03:19:05.700Z,9.50
2022-08-10T03:20:59.912Z,8.80
2022-08-10T03:21:59.904Z,8.70
2022-08-10T03:23:55.215Z,9.50
2022-08-10T03:24:55.199Z,9.80
2022-08-10T03:26:49.350Z,9.10
2022-08-10T03:27:49.340Z,9.70
2022-08-10T03:30:29.750Z,8.20
2022-08-10T03:30:43.425Z,9.50
2022-08-10T03:32:37.529Z,10.90
2022-08-10T03:33:37.520Z,10.20
2022-08-10T03:35:31.679Z,9.60
2022-08-10T03:36:41.691Z,8.40
2022-08-10T03:38:25.850Z,9.30
2022-08-10T03:39:25.892Z,9.00
2022-08-10T03:41:20.028Z,9.90
2022-08-10T03:42:20.022Z,10.60
2022-08-10T03:44:14.182Z,9.10
2022-08-10T03:45:14.165Z,9.10
2022-08-10T03:47:16.050Z,8.90
2022-08-10T03:48:09.262Z,9.00
2022-08-10T03:50:03.447Z,9.00
2022-08-10T03:51:03.332Z,8.90
2022-08-10T03:52:57.499Z,10.80
2022-08-10T03:54:04.941Z,10.40
2022-08-10T03:56:29.318Z,9.10
2022-08-10T03:56:51.573Z,10.30
2022-08-10T03:58:45.689Z,8.40
2022-08-10T03:59:45.670Z,8.80
2022-08-10T04:02:44.344Z,9.80
2022-08-10T04:02:44.804Z,8.60
2022-08-10T04:04:34.955Z,8.90
2022-08-10T04:05:38.473Z,9.50
2022-08-10T04:07:30.033Z,10.00
2022-08-10T04:08:30.025Z,9.70
2022-08-10T04:10:24.111Z,9.90
2022-08-10T04:11:24.094Z,10.20
2022-08-10T04:13:19.166Z,10.10
2022-08-10T04:14:38.335Z,9.50
2022-08-10T04:16:13.385Z,9.60
2022-08-10T04:17:14.133Z,9.30
2022-08-10T04:19:08.448Z,8.70
2022-08-10T04:20:08.435Z,9.20
2022-08-10T04:22:02.531Z,9.00
2022-08-10T04:23:02.516Z,10.40
2022-08-10T04:24:56.641Z,10.10
2022-08-10T04:25:56.622Z,10.50
2022-08-10T04:27:50.792Z,8.90
2022-08-10T04:28:50.781Z,9.40
2022-08-10T04:30:44.560Z,10.70
2022-08-10T04:31:44.548Z,9.30
2022-08-10T04:33:39.624Z,9.00
2022-08-10T04:34:39.617Z,13.50
2022-08-10T04:36:33.757Z,11.30
2022-08-10T04:37:33.739Z,9.30
2022-08-10T04:39:27.969Z,18.80
2022-08-10T04:40:29.068Z,15.40
2022-08-10T04:42:22.971Z,9.50
2022-08-10T04:43:22.941Z,9.60
2022-08-10T04:45:17.033Z,14.10
2022-08-10T04:46:56.061Z,11.50
2022-08-10T04:48:41.975Z,13.60
2022-08-10T04:49:54.054Z,15.90
2022-08-10T04:51:05.424Z,10.80
2022-08-10T04:52:05.408Z,10.00
2022-08-10T04:54:05.945Z,9.80
2022-08-10T04:54:59.544Z,11.80
2022-08-10T04:56:53.662Z,9.20
2022-08-10T04:57:53.644Z,9.80
2022-08-10T04:59:47.783Z,12.40
2022-08-10T05:00:47.788Z,10.10
2022-08-10T05:02:43.887Z,14.70
2022-08-10T05:04:36.231Z,11.20
2022-08-10T05:05:37.944Z,10.10
2022-08-10T05:06:37.926Z,13.40
2022-08-10T05:08:32.058Z,10.60
2022-08-10T05:09:32.050Z,10.30
2022-08-10T05:11:26.156Z,10.50
2022-08-10T05:12:26.180Z,10.50
2022-08-10T05:14:20.576Z,11.80
2022-08-10T05:15:20.567Z,10.50
2022-08-10T05:17:14.875Z,10.00
2022-08-10T05:18:14.858Z,15.60
2022-08-10T05:20:10.092Z,9.70
2022-08-10T05:21:10.049Z,10.00
2022-08-10T05:23:04.146Z,13.60
2022-08-10T05:24:04.135Z,12.40
2022-08-10T05:25:58.225Z,10.40
2022-08-10T05:27:00.333Z,9.80
2022-08-10T05:28:52.313Z,11.30
2022-08-10T05:30:01.604Z,10.00
2022-08-10T05:31:46.534Z,11.20
2022-08-10T05:32:57.841Z,10.70
2022-08-10T05:34:41.696Z,9.50
2022-08-10T05:35:57.869Z,10.70
2022-08-10T05:38:10.820Z,9.80
2022-08-10T05:38:35.779Z,10.60
2022-08-10T05:40:29.897Z,10.80
2022-08-10T05:41:29.874Z,9.60
2022-08-10T05:43:24.212Z,10.60
2022-08-10T05:44:24.205Z,16.10
2022-08-10T05:46:21.039Z,9.40
2022-08-10T05:47:18.325Z,16.40
2022-08-10T05:49:12.604Z,12.00
2022-08-10T05:50:12.596Z,11.40
2022-08-10T05:52:06.399Z,9.80
2022-08-10T05:53:59.134Z,10.20
2022-08-10T05:55:02.884Z,9.40
2022-08-10T05:56:00.226Z,10.70
2022-08-10T05:57:54.326Z,9.70
2022-08-10T05:58:54.307Z,10.90
2022-08-10T06:00:50.116Z,10.10
2022-08-10T06:02:30.297Z,9.90
2022-08-10T06:03:42.221Z,14.30
2022-08-10T06:04:42.219Z,11.90
2022-08-10T06:06:36.524Z,11.70
2022-08-10T06:07:36.643Z,11.50
2022-08-10T06:09:30.820Z,11.50
2022-08-10T06:10:32.103Z,12.50
2022-08-10T06:12:29.306Z,11.70
2022-08-10T06:13:29.653Z,11.90
2022-08-10T06:15:21.622Z,13.60
2022-08-10T06:16:19.425Z,11.40
2022-08-10T06:18:13.582Z,16.30
2022-08-10T06:19:14.557Z,14.70
2022-08-10T06:21:07.695Z,11.90
2022-08-10T06:22:07.681Z,11.70
2022-08-10T06:24:01.815Z,12.70
2022-08-10T06:26:55.890Z,13.10
2022-08-10T06:27:55.870Z,13.20
2022-08-10T06:29:50.041Z,13.60
2022-08-10T06:30:50.035Z,11.70
2022-08-10T06:32:44.143Z,12.90
2022-08-10T06:33:44.127Z,12.70
2022-08-10T06:35:38.406Z,10.00
2022-08-10T06:36:38.388Z,11.60
2022-08-10T06:38:32.495Z,9.80
2022-08-10T06:39:34.429Z,12.90
2022-08-10T06:42:14.584Z,12.60
2022-08-10T06:42:28.158Z,11.30
2022-08-10T06:44:22.253Z,11.10
2022-08-10T06:45:22.247Z,12.30
2022-08-10T06:47:22.982Z,12.20
2022-08-10T06:48:16.332Z,8.40
2022-08-10T06:50:10.451Z,9.70
2022-08-10T06:51:10.439Z,12.60
2022-08-10T06:53:05.157Z,15.20
2022-08-10T06:54:05.144Z,11.20
2022-08-10T06:55:59.540Z,11.40
2022-08-10T06:57:17.465Z,10.00
2022-08-10T06:58:53.642Z,14.20
2022-08-10T06:59:53.636Z,9.50
2022-08-10T07:01:51.063Z,11.00
2022-08-10T07:02:47.403Z,14.00
2022-08-10T07:04:41.224Z,10.00
2022-08-10T07:05:41.220Z,10.70
2022-08-10T07:07:35.598Z,10.00
2022-08-10T07:08:35.583Z,10.80
2022-08-10T07:10:41.123Z,11.00
2022-08-10T07:11:29.764Z,10.00
2022-08-10T07:14:14.771Z,8.80
2022-08-10T07:14:23.951Z,9.60
2022-08-10T07:16:18.123Z,10.80
2022-08-10T07:17:18.114Z,12.00
2022-08-10T07:19:12.369Z,9.30
2022-08-10T07:20:12.371Z,9.70
2022-08-10T07:22:06.520Z,10.00
2022-08-10T07:23:56.905Z,8.20
2022-08-10T07:25:00.799Z,9.10
2022-08-10T07:26:00.791Z,9.70
2022-08-10T07:28:00.129Z,9.80
2022-08-10T07:28:54.958Z,9.00
2022-08-10T07:30:48.785Z,8.50
2022-08-10T07:31:55.947Z,11.50
2022-08-10T07:33:44.487Z,13.90
2022-08-10T07:34:44.487Z,11.10
2022-08-10T07:36:38.868Z,7.90
2022-08-10T07:37:38.856Z,9.70
2022-08-10T07:40:01.937Z,12.80
2022-08-10T07:40:34.161Z,10.90
2022-08-10T07:42:28.021Z,8.40
2022-08-10T07:43:28.015Z,8.90
2022-08-10T07:45:22.304Z,7.70
2022-08-10T07:46:22.285Z,8.00
2022-08-10T07:48:16.427Z,8.00
2022-08-10T07:49:19.350Z,8.80
2022-08-10T07:51:10.594Z,11.00
2022-08-10T07:52:10.582Z,9.80
2022-08-10T07:54:04.886Z,7.80
2022-08-10T07:55:04.887Z,7.50
2022-08-10T07:56:59.157Z,9.60
2022-08-10T07:57:59.134Z,9.70
2022-08-10T07:59:53.360Z,12.40
2022-08-10T08:00:53.357Z,10.70
2022-08-10T08:02:47.626Z,8.40
2022-08-10T08:04:05.958Z,10.00
2022-08-10T08:05:58.862Z,8.80
2022-08-10T08:06:41.436Z,7.60
2022-08-10T08:08:35.544Z,11.00
2022-08-10T08:09:35.541Z,8.40
2022-08-10T08:11:30.681Z,14.60
2022-08-10T08:12:36.222Z,10.90
2022-08-10T08:14:24.778Z,8.40
2022-08-10T08:16:17.370Z,9.20
2022-08-10T08:17:18.997Z,8.10
2022-08-10T08:18:24.444Z,11.40
2022-08-10T08:20:14.130Z,9.90
2022-08-10T08:24:04.647Z,9.60
2022-08-10T08:24:05.068Z,8.20
2022-08-10T08:24:31.990Z,7.90
2022-08-10T08:26:02.555Z,8.90
2022-08-10T08:27:02.566Z,8.10
2022-08-10T08:28:56.679Z,7.40
2022-08-10T08:29:56.680Z,7.10
2022-08-10T08:32:01.194Z,10.70
2022-08-10T08:32:50.982Z,7.40
2022-08-10T08:34:45.279Z,9.20
2022-08-10T08:35:45.284Z,7.60
2022-08-10T08:38:33.027Z,9.40
2022-08-10T08:38:39.503Z,11.10
2022-08-10T08:40:33.649Z,8.20
2022-08-10T08:41:33.629Z,8.20
2022-08-10T08:43:31.368Z,7.60
2022-08-10T08:44:31.626Z,8.00
2022-08-10T08:46:22.027Z,7.10
2022-08-10T08:48:04.325Z,8.70
2022-08-10T08:50:05.197Z,8.70
2022-08-10T08:50:16.162Z,7.50
2022-08-10T08:52:18.385Z,8.20
2022-08-10T08:53:21.503Z,9.10
2022-08-10T08:55:04.594Z,7.60
2022-08-10T08:56:07.193Z,6.80
2022-08-10T08:57:58.783Z,8.30
2022-08-10T08:58:58.779Z,10.50
2022-08-10T09:00:53.158Z,7.00
2022-08-10T09:01:53.186Z,11.90
2022-08-10T09:03:47.360Z,7.70
2022-08-10T09:04:47.337Z,7.10
2022-08-10T09:06:41.521Z,6.50
2022-08-10T09:08:00.910Z,9.20
2022-08-10T09:09:35.664Z,8.20
2022-08-10T09:10:37.649Z,6.40
2022-08-10T09:12:29.901Z,6.80
2022-08-10T09:13:29.895Z,8.00
2022-08-10T09:15:40.448Z,7.50
2022-08-10T09:16:24.072Z,8.10
2022-08-10T09:18:18.210Z,9.80
2022-08-10T09:19:34.991Z,7.00
2022-08-10T09:21:12.378Z,9.20
2022-08-10T09:22:17.969Z,7.30
2022-08-10T09:24:06.635Z,7.50
2022-08-10T09:25:06.638Z,6.80
2022-08-10T09:27:00.790Z,6.30
2022-08-10T09:28:00.784Z,7.40
2022-08-10T09:29:56.181Z,9.20
2022-08-10T09:31:20.819Z,7.10
2022-08-10T09:36:20.692Z,5.90
2022-08-10T09:36:22.961Z,8.70
2022-08-10T09:36:25.146Z,5.90
2022-08-10T09:36:44.616Z,6.00
2022-08-10T09:38:38.486Z,6.50
2022-08-10T09:40:06.720Z,6.50
2022-08-10T09:41:32.757Z,9.20
2022-08-10T09:42:32.681Z,7.40
2022-08-10T09:44:26.811Z,8.00
2022-08-10T09:45:26.817Z,15.40
2022-08-10T09:47:21.989Z,6.20
2022-08-10T09:48:21.978Z,6.20
2022-08-10T09:50:16.172Z,6.30
2022-08-10T09:51:42.132Z,8.00
2022-08-10T09:53:10.312Z,6.30
2022-08-10T09:54:10.307Z,9.20
2022-08-10T09:56:17.360Z,8.80
2022-08-10T09:57:41.421Z,10.70
2022-08-10T09:59:27.295Z,8.60
2022-08-10T10:00:01.493Z,6.70
2022-08-10T10:01:58.147Z,6.20
2022-08-10T10:02:53.105Z,6.60
2022-08-10T10:04:47.468Z,6.60
2022-08-10T10:05:50.402Z,9.20
2022-08-10T10:07:42.625Z,6.10
2022-08-10T10:08:43.218Z,6.00
2022-08-10T10:10:37.715Z,6.20
2022-08-10T10:11:37.707Z,6.20
2022-08-10T10:13:41.566Z,5.30
2022-08-10T10:14:31.867Z,8.50
2022-08-10T10:16:26.028Z,5.60
2022-08-10T10:17:26.030Z,6.50
2022-08-10T10:19:20.153Z,10.20
2022-08-10T10:20:20.163Z,5.60
2022-08-10T10:22:14.381Z,6.50
2022-08-10T10:23:14.381Z,6.70
2022-08-10T10:25:19.673Z,8.40
2022-08-10T10:26:17.646Z,5.80
2022-08-10T10:28:03.806Z,5.50
2022-08-10T10:30:57.772Z,7.90
2022-08-10T10:31:57.761Z,5.20
2022-08-10T10:33:51.910Z,6.80
2022-08-10T10:34:51.916Z,5.70
2022-08-10T10:36:46.067Z,6.00
2022-08-10T10:38:00.758Z,6.50
2022-08-10T10:39:40.277Z,9.00
2022-08-10T10:40:40.258Z,6.60
2022-08-10T10:42:45.135Z,5.40
2022-08-10T10:43:35.470Z,5.10
2022-08-10T10:45:30.607Z,5.60
2022-08-10T10:46:30.608Z,5.50
2022-08-10T10:48:28.965Z,5.70
2022-08-10T10:49:24.725Z,5.60
2022-08-10T10:51:18.838Z,5.50
2022-08-10T10:52:18.836Z,6.20
2022-08-10T10:54:12.966Z,5.30
2022-08-10T10:55:12.966Z,5.20
2022-08-10T10:57:07.150Z,5.30
2022-08-10T10:58:07.149Z,5.20
2022-08-10T11:00:01.531Z,5.80
2022-08-10T11:01:01.573Z,6.50
2022-08-10T11:02:55.747Z,7.60
2022-08-10T11:03:55.744Z,5.30
2022-08-10T11:05:49.927Z,5.10
2022-08-10T11:06:49.934Z,5.30
2022-08-10T11:08:44.151Z,5.60
2022-08-10T11:10:07.915Z,5.30
2022-08-10T11:12:02.100Z,6.00
2022-08-10T11:12:43.591Z,4.90
2022-08-10T11:14:32.677Z,5.80
2022-08-10T11:15:32.682Z,5.90
2022-08-10T11:17:26.977Z,5.10
2022-08-10T11:18:26.890Z,5.10
2022-08-10T11:20:21.578Z,5.60
2022-08-10T11:21:21.702Z,5.80
2022-08-10T11:23:16.769Z,6.40
2022-08-10T11:24:47.665Z,4.80
2022-08-10T11:26:11.349Z,6.10
2022-08-10T11:27:21.592Z,5.90
2022-08-10T11:29:06.672Z,5.70
2022-08-10T11:30:06.692Z,8.60
2022-08-10T11:32:00.874Z,6.20
2022-08-10T11:33:00.871Z,8.60
2022-08-10T11:35:11.793Z,7.50
2022-08-10T11:35:55.022Z,6.60
2022-08-10T11:38:32.267Z,6.20
2022-08-10T11:39:12.852Z,5.90
2022-08-10T11:40:43.485Z,9.10
2022-08-10T11:42:09.714Z,5.90
2022-08-10T11:43:37.629Z,6.50
2022-08-10T11:44:37.635Z,6.10
2022-08-10T11:46:31.858Z,6.50
2022-08-10T11:47:31.852Z,7.00
2022-08-10T11:49:25.639Z,6.10
2022-08-10T11:50:25.643Z,6.10
2022-08-10T11:52:19.848Z,6.70
2022-08-10T11:53:19.846Z,5.90
2022-08-10T11:55:15.460Z,6.40
2022-08-10T11:56:14.213Z,6.40
2022-08-10T11:58:08.467Z,6.00
2022-08-10T11:59:16.717Z,6.10
2022-08-10T12:01:02.644Z,6.70
2022-08-10T12:02:02.722Z,6.90
2022-08-10T12:03:56.401Z,6.40
2022-08-10T12:04:56.403Z,6.40
2022-08-10T12:06:57.759Z,10.20
2022-08-10T12:10:04.462Z,12.00
2022-08-10T12:10:10.825Z,7.30
2022-08-10T12:10:44.678Z,6.20
2022-08-10T12:12:39.870Z,8.00
2022-08-10T12:13:39.845Z,8.30
2022-08-10T12:15:34.009Z,6.80
2022-08-10T12:16:33.996Z,6.10
2022-08-10T12:18:28.124Z,6.80
2022-08-10T12:19:28.223Z,7.10
2022-08-10T12:21:22.420Z,7.00
2022-08-10T12:22:22.265Z,6.70
2022-08-10T12:24:16.731Z,6.90
2022-08-10T12:25:49.617Z,7.50
2022-08-10T12:27:13.330Z,6.70
2022-08-10T12:28:10.879Z,7.00
2022-08-10T12:30:04.659Z,8.40
2022-08-10T12:31:04.654Z,6.50
2022-08-10T12:32:58.836Z,6.20
2022-08-10T12:34:02.023Z,6.10
2022-08-10T12:36:16.880Z,7.00
2022-08-10T12:36:53.088Z,6.10
2022-08-10T12:38:47.211Z,7.90
2022-08-10T12:39:47.254Z,8.50
2022-08-10T12:41:44.387Z,7.30
2022-08-10T12:42:42.128Z,6.40
2022-08-10T12:44:41.066Z,6.30
2022-08-10T12:45:35.463Z,6.30
2022-08-10T12:47:29.610Z,6.00
2022-08-10T12:48:31.094Z,6.30
2022-08-10T12:50:32.849Z,6.50
2022-08-10T12:51:24.154Z,6.50
2022-08-10T12:53:18.531Z,6.80
2022-08-10T12:54:32.075Z,6.60
2022-08-10T12:56:12.637Z,6.10
2022-08-10T12:57:12.627Z,7.30
2022-08-10T12:59:06.756Z,7.60
2022-08-10T13:00:06.761Z,6.50
2022-08-10T13:02:06.656Z,6.80
2022-08-10T13:04:20.713Z,10.50
2022-08-10T13:05:15.178Z,6.50
2022-08-10T13:07:09.303Z,8.60
2022-08-10T13:08:26.611Z,6.60
2022-08-10T13:10:03.614Z,6.50
2022-08-10T13:11:03.475Z,6.40
2022-08-10T13:12:58.699Z,6.80
2022-08-10T13:13:58.690Z,8.50
2022-08-10T13:15:53.071Z,6.90
2022-08-10T13:16:53.071Z,7.70
2022-08-10T13:18:47.280Z,6.80
2022-08-10T13:19:56.053Z,6.70
2022-08-10T13:21:41.760Z,9.90
2022-08-10T13:22:41.771Z,6.80
2022-08-10T13:24:35.914Z,7.00
2022-08-10T13:25:35.914Z,6.80
2022-08-10T13:28:01.189Z,6.30
2022-08-10T13:28:35.789Z,6.90
2022-08-10T13:30:37.898Z,7.50
2022-08-10T13:31:29.646Z,7.50
2022-08-10T13:34:39.509Z,8.20
2022-08-10T13:34:43.096Z,7.40
2022-08-10T13:36:12.395Z,10.90
2022-08-10T13:37:12.375Z,7.30
2022-08-10T13:39:06.796Z,7.30
2022-08-10T13:40:06.785Z,7.20
2022-08-10T13:42:01.967Z,6.30
2022-08-10T13:43:01.885Z,6.00
2022-08-10T13:44:56.044Z,8.80
2022-08-10T13:45:56.061Z,7.20
2022-08-10T13:47:50.408Z,7.20
2022-08-10T13:48:50.223Z,6.30
2022-08-10T13:50:44.084Z,6.70
2022-08-10T13:51:57.629Z,6.70
2022-08-10T13:53:38.391Z,6.60
2022-08-10T13:54:38.379Z,6.50
2022-08-10T13:56:32.533Z,6.10
2022-08-10T13:57:32.523Z,6.00
2022-08-10T13:59:26.658Z,6.50
2022-08-10T14:00:37.126Z,6.70
2022-08-10T14:02:20.459Z,6.70
2022-08-10T14:03:20.452Z,6.60
2022-08-10T14:05:14.643Z,7.40
2022-08-10T14:06:14.639Z,7.40
2022-08-10T14:08:09.842Z,6.70
2022-08-10T14:09:09.810Z,7.80
2022-08-10T14:11:11.814Z,6.10
2022-08-10T14:12:04.031Z,5.80
2022-08-10T14:13:58.271Z,6.40
2022-08-10T14:14:58.254Z,6.70
2022-08-10T14:16:52.439Z,7.10
2022-08-10T14:17:52.436Z,6.50
2022-08-10T14:19:47.561Z,6.70
2022-08-10T14:20:47.554Z,6.60
2022-08-10T14:22:41.889Z,6.90
2022-08-10T14:23:41.796Z,6.00
2022-08-10T14:25:35.997Z,6.90
2022-08-10T14:26:35.995Z,6.00
2022-08-10T14:28:31.154Z,6.40
2022-08-10T14:29:31.139Z,6.70
2022-08-10T14:31:25.342Z,6.40
2022-08-10T14:32:25.343Z,7.10
2022-08-10T14:34:19.505Z,6.60
2022-08-10T14:36:21.178Z,7.00
2022-08-10T14:37:14.627Z,6.90
2022-08-10T14:38:14.621Z,6.60
2022-08-10T14:40:09.912Z,8.40
2022-08-10T14:41:09.911Z,8.60
2022-08-10T14:43:04.018Z,6.50
2022-08-10T14:44:04.057Z,6.80
2022-08-10T14:46:01.425Z,7.40
2022-08-10T14:46:58.113Z,8.30
2022-08-10T14:48:52.417Z,6.40
2022-08-10T14:49:59.448Z,8.70
2022-08-10T14:51:46.659Z,6.60
2022-08-10T14:52:46.648Z,7.10
2022-08-10T14:54:40.824Z,7.00
2022-08-10T14:55:59.044Z,6.60
2022-08-10T14:58:19.561Z,7.60
2022-08-10T14:58:35.226Z,6.10
2022-08-10T15:00:36.719Z,13.60
2022-08-10T15:02:00.563Z,6.20
2022-08-10T15:03:59.379Z,7.10
2022-08-10T15:04:23.744Z,8.10
2022-08-10T15:06:19.980Z,7.00
2022-08-10T15:07:20.702Z,6.20
2022-08-10T15:09:19.104Z,9.10
2022-08-10T15:10:14.112Z,6.50
2022-08-10T15:12:15.294Z,8.50
2022-08-10T15:13:08.250Z,7.60
2022-08-10T15:15:02.417Z,7.80
2022-08-10T15:16:12.597Z,6.40
2022-08-10T15:17:57.386Z,9.20
2022-08-10T15:18:58.345Z,7.80
2022-08-10T15:20:51.625Z,6.30
2022-08-10T15:22:02.074Z,6.90
2022-08-10T15:24:05.123Z,8.30
2022-08-10T15:24:44.661Z,6.70
2022-08-10T15:26:38.817Z,10.00
2022-08-10T15:27:54.068Z,7.30
2022-08-10T15:29:33.025Z,6.50
2022-08-10T15:30:33.000Z,6.50
2022-08-10T15:32:28.114Z,8.20
2022-08-10T15:33:57.029Z,6.60
2022-08-10T15:35:22.349Z,6.90
2022-08-10T15:36:22.349Z,6.80
2022-08-10T15:38:16.468Z,6.60
2022-08-10T15:40:21.226Z,9.50
2022-08-10T15:41:11.172Z,7.50
2022-08-10T15:42:10.729Z,8.00
2022-08-10T15:44:04.946Z,6.50
2022-08-10T15:45:04.937Z,6.10
2022-08-10T15:47:00.224Z,7.90
2022-08-10T15:48:03.568Z,9.20
2022-08-10T15:49:54.347Z,6.50
2022-08-10T15:50:54.344Z,7.10
2022-08-10T15:53:00.802Z,7.30
2022-08-10T15:53:49.696Z,7.60
2022-08-10T15:55:45.645Z,7.20
2022-08-10T15:56:42.629Z,6.50
2022-08-10T15:58:39.425Z,6.20
2022-08-10T15:59:36.783Z,6.40
2022-08-10T16:02:13.200Z,8.40
2022-08-10T16:02:30.948Z,8.60
2022-08-10T16:04:31.695Z,7.00
2022-08-10T16:05:40.714Z,6.70
2022-08-10T16:07:20.757Z,7.60
2022-08-10T16:08:22.150Z,6.50
2022-08-10T16:10:25.379Z,7.00
2022-08-10T16:11:14.341Z,7.10
2022-08-10T16:13:59.685Z,8.10
2022-08-10T16:14:08.471Z,7.20
2022-08-10T16:16:02.705Z,6.70
2022-08-10T16:17:02.703Z,8.40
2022-08-10T16:18:56.827Z,7.60
2022-08-10T16:19:56.859Z,6.50
2022-08-10T16:21:50.956Z,11.90
2022-08-10T16:22:50.963Z,6.80
2022-08-10T16:24:45.296Z,8.00
2022-08-10T16:25:51.680Z,6.60
2022-08-10T16:27:40.520Z,7.60
2022-08-10T16:28:40.514Z,7.60
2022-08-10T16:30:34.268Z,6.60
2022-08-10T16:31:34.259Z,6.40
2022-08-10T16:33:53.158Z,10.70
2022-08-10T16:34:28.364Z,9.50
2022-08-10T16:36:22.496Z,6.50
2022-08-10T16:37:22.492Z,7.30
2022-08-10T16:39:57.179Z,8.10
2022-08-10T16:40:16.665Z,8.40
2022-08-10T16:42:10.777Z,7.20
2022-08-10T16:43:10.776Z,7.60
2022-08-10T16:45:05.133Z,7.20
2022-08-10T16:46:05.141Z,7.10
2022-08-10T16:47:59.311Z,6.70
2022-08-10T16:48:59.309Z,8.00
2022-08-10T16:50:53.453Z,6.70
2022-08-10T16:51:53.443Z,6.40
2022-08-10T16:53:47.777Z,7.90
2022-08-10T16:54:50.123Z,8.40
2022-08-10T16:56:49.088Z,7.00
2022-08-10T16:57:41.725Z,8.00
2022-08-10T16:59:36.925Z,8.00
2022-08-10T17:00:36.918Z,6.80
2022-08-10T17:02:31.153Z,7.20
2022-08-10T17:04:08.455Z,9.10
2022-08-10T17:06:01.813Z,7.80
2022-08-10T17:06:25.263Z,7.20
2022-08-10T17:08:19.036Z,7.50
2022-08-10T17:09:19.036Z,8.50
2022-08-10T17:11:14.074Z,7.60
2022-08-10T17:12:13.208Z,7.40
2022-08-10T17:14:07.480Z,6.80
2022-08-10T17:15:09.382Z,8.50
2022-08-10T17:17:01.632Z,7.30
2022-08-10T17:18:01.628Z,6.90
2022-08-10T17:19:55.864Z,6.90
2022-08-10T17:20:55.765Z,6.50
2022-08-10T17:22:54.488Z,7.70
2022-08-10T17:23:49.913Z,7.90
2022-08-10T17:25:46.020Z,6.90
2022-08-10T17:26:44.122Z,6.80
2022-08-10T17:28:38.368Z,7.50
2022-08-10T17:29:58.613Z,6.80
2022-08-10T17:31:53.334Z,6.60
2022-08-10T17:32:32.434Z,6.90
2022-08-10T17:34:26.557Z,6.90
2022-08-10T17:35:26.549Z,7.50
2022-08-10T17:37:20.687Z,7.20
2022-08-10T17:38:20.688Z,6.70
2022-08-10T17:40:14.973Z,6.50
2022-08-10T17:41:14.961Z,7.30
2022-08-10T17:43:09.111Z,7.10
2022-08-10T17:44:09.103Z,8.30
2022-08-10T17:46:03.262Z,7.10
2022-08-10T17:47:10.934Z,10.20
2022-08-10T17:48:57.339Z,6.50
2022-08-10T17:49:57.341Z,6.60
2022-08-10T17:51:51.491Z,6.60
2022-08-10T17:52:51.475Z,7.20
2022-08-10T17:54:45.602Z,6.50
2022-08-10T17:55:45.599Z,6.70
2022-08-10T17:57:39.920Z,6.50
2022-08-10T17:58:39.683Z,7.40
2022-08-10T18:00:33.842Z,7.80
2022-08-10T18:01:38.645Z,6.90
2022-08-10T18:03:29.027Z,7.10
2022-08-10T18:04:30.334Z,7.90
2022-08-10T18:06:23.363Z,6.60
2022-08-10T18:07:23.354Z,8.50
2022-08-10T18:09:18.694Z,7.40
2022-08-10T18:10:18.682Z,8.20
2022-08-10T18:12:17.601Z,8.30
2022-08-10T18:13:12.584Z,7.10
2022-08-10T18:15:06.721Z,7.80
2022-08-10T18:16:06.709Z,7.10
2022-08-10T18:18:01.863Z,7.00
2022-08-10T18:19:01.855Z,6.90
2022-08-10T18:20:56.085Z,6.60
2022-08-10T18:21:56.067Z,8.00
2022-08-10T18:23:52.661Z,9.00
2022-08-10T18:24:50.250Z,11.50
2022-08-10T18:26:44.357Z,7.10
2022-08-10T18:28:01.155Z,6.70
2022-08-10T18:29:38.493Z,8.00
2022-08-10T18:30:42.127Z,7.70
2022-08-10T18:32:32.253Z,7.50
2022-08-10T18:33:32.251Z,6.90
2022-08-10T18:35:34.828Z,8.40
2022-08-10T18:36:26.644Z,7.20
2022-08-10T18:38:20.835Z,7.10
2022-08-10T18:39:20.886Z,7.00
2022-08-10T18:41:14.955Z,7.80
2022-08-10T18:42:14.947Z,6.90
2022-08-10T18:44:12.219Z,8.30
2022-08-10T18:45:09.022Z,11.60
2022-08-10T18:47:03.175Z,8.60
2022-08-10T18:48:03.168Z,7.10
2022-08-10T18:49:57.264Z,8.40
2022-08-10T18:50:57.254Z,8.40
2022-08-10T18:52:51.461Z,8.40
2022-08-10T18:53:51.457Z,8.70
2022-08-10T18:56:09.347Z,9.00
2022-08-10T18:56:46.588Z,7.20
2022-08-10T18:58:40.820Z,7.80
2022-08-10T18:59:40.812Z,7.30
2022-08-10T19:01:36.084Z,8.70
2022-08-10T19:02:36.007Z,6.90
2022-08-10T19:04:30.235Z,8.80
2022-08-10T19:05:32.176Z,9.10
2022-08-10T19:07:25.641Z,7.80
2022-08-10T19:08:30.324Z,7.70
2022-08-10T19:10:19.755Z,8.30
2022-08-10T19:11:19.743Z,8.30
2022-08-10T19:13:14.021Z,12.80
2022-08-10T19:14:14.015Z,9.90
2022-08-10T19:16:08.114Z,8.10